< < Back
Terminal Aerodrome Forecast


Current Version              Previous Versions:   1  2  3  4  5  6  7  8  9  

Terminal Aerodrome Forecast

899
FTUS44 KOHX 250538
TAFCSV
TAF
KCSV 250538Z 2506/2606 00000KT P6SM SKC
     FM251200 24006KT P6SM SCT100 BKN250=



Latest METAR

651
SAUS70 KWBC 251100 RRL
MTRCSV
METAR KCSV 251053Z AUTO 00000KT 10SM CLR 17/11 A3021 RMK AO2 SLP210
T01720111


USA.gov is the U.S. government's official web portal to all federal, state and local government web resources and services.